Time;durP1;ratioP1;P1;durP2;ratioP2;P2;SDS_P1;SDS_P2;PMS_P1;PMS_P2;Temp;Humidity;BMP_temperature;BMP_pressure;BME280_temperature;BME280_humidity;BME280_pressure;Samples;Min_cycle;Max_cycle;Signal;HPM_P1;HPM_P2
2022/06/20 00:00:17;;;;;;;13.43;2.95;;;;;;;13.45;100.00;101399.84;4909609;29;20063;-79
2022/06/20 00:02:51;;;;;;;6.57;2.40;;;;;;;13.44;100.00;101382.19;4907878;29;20048;-79
2022/06/20 00:05:24;;;;;;;11.48;2.40;;;;;;;13.46;100.00;101388.38;4909271;29;20036;-79
2022/06/20 00:07:53;;;;;;;7.15;2.25;;;;;;;13.45;100.00;101406.00;4906498;29;20139;-79
2022/06/20 00:10:23;;;;;;;7.82;2.20;;;;;;;13.44;100.00;101406.91;4893381;29;20075;-78
2022/06/20 00:12:53;;;;;;;10.88;2.00;;;;;;;13.41;100.00;101396.28;4865645;29;20075;-78
2022/06/20 00:15:26;;;;;;;7.60;2.40;;;;;;;13.40;100.00;101406.88;4906551;29;20521;-79
2022/06/20 00:17:56;;;;;;;6.10;2.20;;;;;;;13.40;100.00;101420.13;4901792;29;20250;-78
2022/06/20 00:20:26;;;;;;;4.77;1.90;;;;;;;13.39;100.00;101413.06;4908356;29;20501;-78
2022/06/20 00:22:55;;;;;;;6.40;2.63;;;;;;;13.39;100.00;101381.31;4906004;29;20044;-78
2022/06/20 00:25:24;;;;;;;5.82;1.85;;;;;;;13.37;100.00;101385.72;4913916;29;20036;-78
2022/06/20 00:27:56;;;;;;;7.93;1.90;;;;;;;13.37;100.00;101380.44;4899275;29;20051;-78
2022/06/20 00:30:24;;;;;;;4.75;1.60;;;;;;;13.37;100.00;101381.31;4873531;29;20047;-78
2022/06/20 00:32:53;;;;;;;6.80;1.63;;;;;;;13.36;100.00;101390.09;4895770;29;20146;-78
2022/06/20 00:35:21;;;;;;;7.55;1.73;;;;;;;13.34;100.00;101383.06;4913665;29;20048;-78
2022/06/20 00:37:53;;;;;;;6.85;1.67;;;;;;;13.35;100.00;101393.66;4905384;29;20056;-78
2022/06/20 00:40:34;;;;;;;4.82;1.80;;;;;;;13.34;100.00;101397.16;4894034;29;20063;-78
2022/06/20 00:43:05;;;;;;;7.65;2.22;;;;;;;13.33;100.00;101394.56;4906350;29;20036;-78
2022/06/20 00:45:39;;;;;;;6.60;1.90;;;;;;;13.31;100.00;101386.59;4866142;29;20402;-79
2022/06/20 00:48:13;;;;;;;5.05;2.05;;;;;;;13.32;100.00;101383.06;4891493;29;20568;-78
2022/06/20 00:50:47;;;;;;;6.43;2.30;;;;;;;13.30;100.00;101374.22;4898600;29;20063;-79
2022/06/20 00:53:33;;;;;;;5.30;1.60;;;;;;;13.30;100.00;101362.75;4920683;29;20067;-78
2022/06/20 00:56:11;;;;;;;3.97;1.55;;;;;;;13.30;100.00;101365.38;4911833;29;20434;-78
2022/06/20 00:59:00;;;;;;;5.55;1.67;;;;;;;13.30;100.00;101355.72;4905468;29;20056;-78
2022/06/20 01:01:37;;;;;;;4.88;1.60;;;;;;;13.30;100.00;101358.34;4865658;29;20040;-79
2022/06/20 01:04:19;;;;;;;6.05;2.05;;;;;;;13.29;100.00;101375.09;4906599;29;20170;-78
2022/06/20 01:06:54;;;;;;;5.05;1.48;;;;;;;13.27;100.00;101388.31;4904703;29;20044;-79
2022/06/20 01:09:27;;;;;;;6.22;1.85;;;;;;;13.26;100.00;101404.19;4908717;29;20494;-78
2022/06/20 01:11:58;;;;;;;10.13;1.88;;;;;;;13.23;100.00;101401.53;4905289;29;20586;-78
2022/06/20 01:14:37;;;;;;;4.13;1.60;;;;;;;13.20;100.00;101398.91;4910282;29;20052;-78
2022/06/20 01:17:07;;;;;;;6.07;2.65;;;;;;;13.16;100.00;101408.59;4873780;29;20040;-79
2022/06/20 01:19:58;;;;;;;5.88;1.90;;;;;;;13.11;100.00;101410.34;4891677;29;20502;-79
2022/06/20 01:22:52;;;;;;;5.40;2.10;;;;;;;13.06;100.00;101417.38;4907814;29;20060;-78
2022/06/20 01:25:36;;;;;;;7.57;1.77;;;;;;;13.03;100.00;101418.28;4909046;29;20055;-78
2022/06/20 01:28:12;;;;;;;5.68;1.55;;;;;;;13.00;100.00;101404.16;4906721;29;20083;-78
2022/06/20 01:30:43;;;;;;;7.70;1.75;;;;;;;12.97;100.00;101412.09;4886381;29;20048;-78
2022/06/20 01:33:15;;;;;;;5.38;1.67;;;;;;;12.92;100.00;101408.56;4906666;29;20047;-78
2022/06/20 01:38:32;;;;;;;5.53;1.77;;;;;;;12.84;100.00;101400.59;4893344;29;20052;-79
2022/06/20 01:43:52;;;;;;;9.40;2.20;;;;;;;12.77;100.00;101396.16;4895101;29;20040;-78
2022/06/20 01:46:26;;;;;;;7.18;2.65;;;;;;;12.74;100.00;101393.50;4881181;29;20055;-78
2022/06/20 01:48:59;;;;;;;7.05;2.25;;;;;;;12.71;100.00;101404.97;4893299;29;20055;-79
2022/06/20 01:51:46;;;;;;;3.58;1.98;;;;;;;12.67;100.00;101397.91;4913271;29;20055;-78
2022/06/20 01:54:16;;;;;;;8.63;1.85;;;;;;;12.63;100.00;101402.31;4910864;29;20048;-78
2022/06/20 01:56:47;;;;;;;6.07;2.05;;;;;;;12.59;100.00;101389.94;4896507;29;20037;-80
2022/06/20 01:59:30;;;;;;;6.90;1.80;;;;;;;12.55;100.00;101393.47;4906096;29;20178;-78
2022/06/20 02:01:58;;;;;;;7.75;2.30;;;;;;;12.52;100.00;101384.63;4876377;29;20386;-78
2022/06/20 02:04:31;;;;;;;9.48;2.80;;;;;;;12.48;100.00;101386.38;4909686;29;20063;-77
2022/06/20 02:07:02;;;;;;;5.72;2.35;;;;;;;12.45;100.00;101384.59;4909500;29;20051;-77
2022/06/20 02:09:30;;;;;;;6.00;1.70;;;;;;;12.41;100.00;101390.75;4911008;29;20055;-77
2022/06/20 02:12:00;;;;;;;4.53;2.35;;;;;;;12.36;100.00;101389.88;4892198;29;20036;-78
2022/06/20 02:14:31;;;;;;;7.30;2.00;;;;;;;12.34;100.00;101388.94;4894107;29;20044;-77
2022/06/20 02:17:05;;;;;;;4.75;1.83;;;;;;;12.30;100.00;101376.59;4879159;29;20048;-78
2022/06/20 02:19:39;;;;;;;6.35;1.92;;;;;;;12.27;100.00;101381.88;4902448;29;20056;-78
2022/06/20 02:22:09;;;;;;;7.90;2.10;;;;;;;12.21;100.00;101389.75;4908063;29;20044;-78
2022/06/20 02:24:41;;;;;;;;;;;;;;;12.16;100.00;101399.44;4911494;29;20055;-77
2022/06/20 02:27:22;;;;;;;4.82;1.90;;;;;;;12.09;100.00;101404.66;4907025;29;19923;-78
2022/06/20 02:29:51;;;;;;;4.85;1.50;;;;;;;12.04;100.00;101406.44;4911885;29;20047;-79
2022/06/20 02:32:45;;;;;;;6.70;2.42;;;;;;;12.01;100.00;101410.81;4874838;29;20423;-78
2022/06/20 02:35:17;;;;;;;5.15;1.95;;;;;;;11.98;100.00;101411.66;4900930;29;20274;-78
2022/06/20 02:37:47;;;;;;;6.53;2.20;;;;;;;11.95;100.00;101401.09;4877198;29;20040;-78
2022/06/20 02:40:19;;;;;;;6.60;2.15;;;;;;;11.95;100.00;101403.72;4891605;29;20414;-79
2022/06/20 02:42:53;;;;;;;5.22;2.15;;;;;;;11.97;100.00;101398.47;4908454;29;20528;-79
2022/06/20 02:45:24;;;;;;;5.82;2.10;;;;;;;11.99;100.00;101412.56;4905864;29;20508;-78
2022/06/20 02:47:59;;;;;;;5.20;1.80;;;;;;;11.99;100.00;101409.91;4877456;29;20064;-80
2022/06/20 02:50:32;;;;;;;7.75;1.90;;;;;;;11.98;100.00;101424.84;4902441;29;20253;-79
2022/06/20 02:53:05;;;;;;;7.88;2.35;;;;;;;11.98;100.00;101424.84;4908304;29;20047;-80
2022/06/20 02:55:37;;;;;;;7.20;2.22;;;;;;;11.98;100.00;101429.25;4910994;29;20063;-78
2022/06/20 02:58:18;;;;;;;3.95;1.65;;;;;;;12.00;100.00;101431.06;4908290;29;20502;-78
2022/06/20 03:01:13;;;;;;;5.40;1.70;;;;;;;12.01;100.00;101426.66;4895234;29;20050;-79
2022/06/20 03:03:46;;;;;;;5.30;1.90;;;;;;;12.00;100.00;101432.78;4888213;29;20401;-79
2022/06/20 03:06:42;;;;;;;6.20;2.13;;;;;;;12.00;100.00;101423.13;4906174;29;20151;-77
2022/06/20 03:09:15;;;;;;;5.57;2.22;;;;;;;12.02;100.00;101425.75;4902766;29;20040;-79
2022/06/20 03:11:43;;;;;;;5.95;1.98;;;;;;;12.05;100.00;101424.03;4871336;29;20052;-79
2022/06/20 03:14:16;;;;;;;3.95;1.52;;;;;;;12.07;100.00;101413.47;4852452;29;20041;-79
2022/06/20 03:16:44;;;;;;;6.68;2.70;;;;;;;12.12;100.00;101413.50;4872572;29;20045;-78
2022/06/20 03:19:27;;;;;;;9.20;2.17;;;;;;;12.14;100.00;101410.00;4834761;29;20033;-76
2022/06/20 03:21:59;;;;;;;8.05;2.28;;;;;;;12.17;100.00;101406.47;4871663;29;20048;-77
2022/06/20 03:24:28;;;;;;;8.13;2.28;;;;;;;12.19;100.00;101410.00;4887177;29;20071;-77
2022/06/20 03:27:01;;;;;;;9.00;2.97;;;;;;;12.20;100.00;101403.88;4871290;29;20458;-80
2022/06/20 03:29:29;;;;;;;10.88;2.60;;;;;;;12.22;100.00;101402.13;4865403;29;20416;-77
2022/06/20 03:31:57;;;;;;;3.63;2.17;;;;;;;12.21;100.00;101413.53;4872482;29;20111;-78
2022/06/20 03:34:26;;;;;;;10.70;2.58;;;;;;;12.19;100.00;101412.66;4838191;29;20247;-78
2022/06/20 03:36:57;;;;;;;6.68;2.67;;;;;;;12.18;100.00;101413.53;4842569;29;20049;-79
2022/06/20 03:39:26;;;;;;;9.10;2.85;;;;;;;12.16;100.00;101415.31;4871646;29;20053;-78
2022/06/20 03:41:54;;;;;;;7.10;2.40;;;;;;;12.13;100.00;101418.78;4871744;29;20056;-79
2022/06/20 03:44:46;;;;;;;7.40;2.63;;;;;;;12.12;100.00;101424.06;4869949;29;20067;-79
2022/06/20 03:47:39;;;;;;;6.50;2.83;;;;;;;12.07;100.00;101421.41;4869788;29;20179;-78
2022/06/20 03:50:13;;;;;;;9.85;2.22;;;;;;;12.04;100.00;101426.66;4833665;29;20042;-79
2022/06/20 03:52:57;;;;;;;7.85;2.70;;;;;;;12.00;100.00;101411.66;4872507;29;20049;-79
2022/06/20 03:55:41;;;;;;;10.88;2.90;;;;;;;11.96;100.00;101410.75;4874958;29;20053;-78
2022/06/20 03:58:15;;;;;;;6.55;2.42;;;;;;;11.93;100.00;101402.84;4869991;29;20049;-79
2022/06/20 04:00:54;;;;;;;10.38;2.80;;;;;;;11.90;100.00;101408.09;4875886;29;20458;-78
2022/06/20 04:03:33;;;;;;;6.57;2.88;;;;;;;11.89;100.00;101403.66;4870644;29;20040;-78
2022/06/20 04:06:13;;;;;;;8.35;3.20;;;;;;;11.87;100.00;101406.28;4839951;29;20411;-79
2022/06/20 04:11:53;;;;;;;8.63;3.33;;;;;;;11.87;100.00;101408.94;4902351;29;20307;-78
2022/06/20 04:14:30;;;;;;;8.57;2.83;;;;;;;11.86;100.00;101396.56;4892665;29;20064;-78
2022/06/20 04:18:27;;;;;;;9.85;3.28;;;;;;;11.86;100.00;101406.25;4909727;29;20044;-78
2022/06/20 04:19:56;;;;;;;10.98;3.38;;;;;;;11.86;100.00;101411.56;4916231;29;20048;-78
2022/06/20 04:22:30;;;;;;;6.65;3.05;;;;;;;11.87;100.00;101398.38;4874933;29;20071;-78
2022/06/20 04:25:16;;;;;;;6.13;3.03;;;;;;;11.92;100.00;101402.81;4923249;29;20063;-78
2022/06/20 04:28:20;;;;;;;7.30;3.00;;;;;;;11.93;100.00;101402.84;4894209;29;20055;-78
2022/06/20 04:31:27;;;;;;;7.22;3.58;;;;;;;11.98;100.00;101395.81;4896196;29;20383;-78
2022/06/20 04:34:26;;;;;;;9.10;3.30;;;;;;;12.03;100.00;101394.06;4896925;29;20059;-79
2022/06/20 04:37:20;;;;;;;13.40;3.65;;;;;;;12.09;100.00;101382.66;4852898;29;20060;-78
2022/06/20 04:39:56;;;;;;;9.05;3.63;;;;;;;12.16;100.00;101380.97;4909651;29;20056;-78
2022/06/20 04:42:36;;;;;;;5.32;3.17;;;;;;;12.26;100.00;101375.69;4907641;29;20048;-78
2022/06/20 04:45:13;;;;;;;10.13;3.70;;;;;;;12.34;100.00;101365.16;4907194;29;20052;-78
2022/06/20 04:48:14;;;;;;;8.43;3.28;;;;;;;12.43;100.00;101366.97;4909061;29;20043;-78
2022/06/20 04:50:52;;;;;;;6.80;3.10;;;;;;;12.51;100.00;101365.22;4895885;29;20075;-78
2022/06/20 04:53:28;;;;;;;10.95;2.90;;;;;;;12.60;100.00;101365.25;4861283;29;20516;-78
2022/06/20 04:56:00;;;;;;;6.20;3.35;;;;;;;12.70;100.00;101360.00;4910131;29;20056;-78
2022/06/20 04:58:52;;;;;;;7.80;3.13;;;;;;;12.81;100.00;101366.19;4907551;29;20055;-79
2022/06/20 05:01:20;;;;;;;7.40;3.30;;;;;;;12.87;100.00;101363.56;4909505;29;20040;-78
2022/06/20 05:03:55;;;;;;;7.72;3.10;;;;;;;12.90;100.00;101354.78;4907605;29;20174;-78
2022/06/20 05:06:30;;;;;;;11.05;3.40;;;;;;;12.99;100.00;101346.84;4909255;29;20497;-79
2022/06/20 05:09:15;;;;;;;13.75;3.40;;;;;;;13.38;100.00;101350.41;4866239;29;20059;-78
2022/06/20 05:12:07;;;;;;;10.02;3.35;;;;;;;14.36;100.00;101349.28;4914547;29;20551;-78
2022/06/20 05:14:49;;;;;;;10.88;3.13;;;;;;;15.51;100.00;101337.03;4919378;29;20253;-78
2022/06/20 05:17:25;;;;;;;9.70;3.42;;;;;;;16.60;100.00;101340.22;4914081;29;20406;-79
2022/06/20 05:20:02;;;;;;;7.97;2.80;;;;;;;17.52;100.00;101333.47;4911533;29;20486;-78
2022/06/20 05:22:35;;;;;;;10.27;3.20;;;;;;;18.26;100.00;101332.97;4854410;29;20052;-79
2022/06/20 05:25:08;;;;;;;10.27;2.67;;;;;;;18.91;100.00;101331.56;4908692;29;20156;-78
2022/06/20 05:27:48;;;;;;;6.88;2.30;;;;;;;19.55;100.00;101339.75;4891418;29;20052;-78
2022/06/20 05:30:20;;;;;;;7.90;2.83;;;;;;;20.09;96.99;101337.44;4858619;29;20043;-78
2022/06/20 05:33:03;;;;;;;6.93;2.88;;;;;;;20.54;87.93;101351.25;4892635;29;20293;-79
2022/06/20 05:35:41;;;;;;;6.70;3.22;;;;;;;20.77;89.97;101339.84;4876304;29;20040;-79
2022/06/20 05:38:22;;;;;;;11.73;2.72;;;;;;;20.67;79.53;101349.13;4907184;29;20450;-79
2022/06/20 05:40:53;;;;;;;;;;;;;;;19.93;75.02;101358.41;4896953;29;20044;-79
2022/06/20 05:43:29;;;;;;;8.88;2.65;;;;;;;19.16;85.97;101355.88;4889496;29;19923;-79
2022/06/20 05:46:00;;;;;;;8.27;2.70;;;;;;;18.45;87.41;101364.59;4895719;29;20052;-78
2022/06/20 05:48:43;;;;;;;8.38;2.58;;;;;;;17.79;87.38;101368.53;4893103;29;20072;-79
2022/06/20 05:51:16;;;;;;;9.65;3.42;;;;;;;17.33;88.87;101372.88;4866298;29;20055;-78
2022/06/20 05:53:49;;;;;;;10.68;2.95;;;;;;;16.90;90.47;101379.75;4873141;29;20048;-78
2022/06/20 05:56:41;;;;;;;6.80;2.83;;;;;;;16.46;91.59;101383.00;4903972;29;20055;-78
2022/06/20 05:59:25;;;;;;;11.98;3.15;;;;;;;16.06;92.73;101380.81;4905790;29;20055;-78
2022/06/20 06:02:12;;;;;;;10.02;3.28;;;;;;;15.74;93.74;101385.53;4889030;29;20048;-77
2022/06/20 06:04:50;;;;;;;8.63;3.17;;;;;;;15.42;95.28;101388.44;4918562;29;20690;-78
2022/06/20 06:07:27;;;;;;;10.45;3.22;;;;;;;15.34;96.51;101391.19;4910959;29;20048;-78
2022/06/20 06:10:06;;;;;;;8.63;3.33;;;;;;;15.53;98.50;101386.59;4875952;29;20423;-77
2022/06/20 06:12:43;;;;;;;6.93;3.10;;;;;;;16.09;100.00;101380.78;4907790;29;20059;-78
2022/06/20 06:15:38;;;;;;;8.60;3.00;;;;;;;16.73;98.62;101392.41;4908638;29;20059;-78
2022/06/20 06:18:14;;;;;;;11.75;3.10;;;;;;;17.24;96.31;101387.25;4911158;29;20052;-78
2022/06/20 06:20:46;;;;;;;10.60;3.22;;;;;;;17.49;93.14;101387.72;4893370;29;20044;-78
2022/06/20 06:23:15;;;;;;;11.70;3.30;;;;;;;17.89;90.87;101387.03;4911878;29;20410;-78
2022/06/20 06:25:44;;;;;;;10.50;2.47;;;;;;;18.33;89.39;101383.53;4862385;29;20044;-77
2022/06/20 06:28:17;;;;;;;10.68;2.72;;;;;;;18.73;85.37;101382.69;4896560;29;20415;-79
2022/06/20 06:30:53;;;;;;;7.15;2.63;;;;;;;18.93;83.31;101379.59;4916338;29;20059;-78
2022/06/20 06:33:35;;;;;;;9.32;2.83;;;;;;;19.01;80.86;101382.97;4908887;29;20071;-77
2022/06/20 06:36:16;;;;;;;13.93;2.75;;;;;;;18.62;80.56;101399.81;4911023;29;20044;-78
2022/06/20 06:39:20;;;;;;;7.60;2.95;;;;;;;18.12;80.17;101404.38;4910612;29;20059;-78
2022/06/20 06:41:54;;;;;;;12.45;3.45;;;;;;;17.62;82.74;101393.72;4862291;29;20522;-77
2022/06/20 06:44:42;;;;;;;7.82;2.92;;;;;;;17.20;84.07;101405.94;4910995;29;20051;-78
2022/06/20 06:47:18;;;;;;;11.43;3.35;;;;;;;16.94;85.43;101404.56;4902637;29;20406;-77
2022/06/20 06:49:50;;;;;;;9.05;2.95;;;;;;;16.77;86.68;101407.44;4925097;28;20695;-77
2022/06/20 06:52:42;;;;;;;10.57;3.13;;;;;;;16.64;87.86;101416.47;4911911;29;20047;-78
2022/06/20 06:55:17;;;;;;;11.13;3.15;;;;;;;16.40;89.05;101413.19;4912854;29;20067;-77
2022/06/20 06:57:50;;;;;;;8.70;2.83;;;;;;;16.20;89.16;101416.09;4905707;29;20242;-77
2022/06/20 07:00:33;;;;;;;9.63;3.03;;;;;;;15.92;91.01;101416.38;4909699;29;20410;-78
2022/06/20 07:03:18;;;;;;;9.43;3.30;;;;;;;15.90;92.25;101425.28;4900079;29;20041;-77
2022/06/20 07:05:59;;;;;;;6.97;2.60;;;;;;;16.11;92.78;101422.41;4908262;29;20266;-77
2022/06/20 07:08:58;;;;;;;12.82;3.45;;;;;;;16.24;92.47;101430.22;4905483;29;20036;-77
2022/06/20 07:11:27;;;;;;;14.43;3.03;;;;;;;16.18;93.79;101426.75;4888251;29;20036;-77
2022/06/20 07:14:01;;;;;;;10.15;3.40;;;;;;;16.08;94.41;101426.84;4908525;29;20040;-77
2022/06/20 07:17:03;;;;;;;10.93;2.58;;;;;;;15.77;96.28;101432.47;4908294;29;20043;-78
2022/06/20 07:19:33;;;;;;;8.35;2.88;;;;;;;15.58;94.28;101429.06;4862645;29;20086;-78
2022/06/20 07:22:01;;;;;;;9.57;2.90;;;;;;;15.46;94.42;101430.03;4882390;29;20072;-77
2022/06/20 07:24:34;;;;;;;7.40;2.40;;;;;;;15.42;95.28;101422.09;4889147;29;20053;-77
2022/06/20 07:27:13;;;;;;;7.88;2.58;;;;;;;15.46;95.68;101426.50;4904416;29;20055;-78
2022/06/20 07:29:50;;;;;;;7.00;2.65;;;;;;;15.63;95.71;101434.34;4887143;29;20132;-77
2022/06/20 07:32:35;;;;;;;7.90;2.47;;;;;;;15.88;95.63;101429.69;4909317;29;20363;-78
2022/06/20 07:35:13;;;;;;;6.95;2.30;;;;;;;16.10;95.31;101431.25;4898648;29;20048;-78
2022/06/20 07:37:51;;;;;;;5.60;2.10;;;;;;;16.16;93.33;101435.63;4908314;29;20048;-78
2022/06/20 07:40:25;;;;;;;8.50;2.80;;;;;;;16.15;93.02;101436.53;4910067;29;20075;-78
2022/06/20 07:43:12;;;;;;;6.82;2.55;;;;;;;16.24;93.36;101433.78;4894957;29;20036;-78
2022/06/20 07:45:47;;;;;;;7.20;2.25;;;;;;;16.25;91.63;101435.53;4898912;28;20055;-77
2022/06/20 07:48:25;;;;;;;9.93;2.03;;;;;;;16.32;90.22;101445.22;4921174;29;20393;-78
2022/06/20 07:51:08;;;;;;;4.90;2.08;;;;;;;16.42;89.57;101442.44;4902526;29;20520;-78
2022/06/20 07:53:39;;;;;;;7.10;2.30;;;;;;;16.35;89.25;101450.50;4887149;29;20442;-79
2022/06/20 07:56:14;;;;;;;8.48;2.30;;;;;;;16.42;90.56;101450.44;4908416;29;20333;-77
2022/06/20 07:58:52;;;;;;;6.30;2.00;;;;;;;16.47;89.69;101461.91;4894904;29;20513;-78
2022/06/20 08:01:32;;;;;;;8.13;2.60;;;;;;;16.42;87.95;101445.09;4927451;28;20059;-77
2022/06/20 08:04:11;;;;;;;6.03;1.88;;;;;;;16.49;87.63;101450.34;4892977;29;20678;-78
2022/06/20 08:06:39;;;;;;;7.65;1.95;;;;;;;16.57;88.90;101439.59;4903781;29;20041;-78
2022/06/20 08:09:32;;;;;;;9.00;2.30;;;;;;;16.65;87.24;101442.16;4908153;29;20278;-77
2022/06/20 08:12:20;;;;;;;4.60;2.17;;;;;;;16.69;87.66;101444.78;4908060;29;20056;-77
2022/06/20 08:15:03;;;;;;;4.55;2.28;;;;;;;16.73;88.04;101437.66;4874743;29;20044;-78
2022/06/20 08:17:32;;;;;;;4.93;2.03;;;;;;;16.75;87.75;101434.06;4913115;29;20036;-77
2022/06/20 08:20:02;;;;;;;4.25;1.90;;;;;;;16.82;87.00;101444.59;4900333;29;20226;-77
2022/06/20 08:22:52;;;;;;;6.97;1.73;;;;;;;16.77;86.68;101442.91;4909383;29;20040;-78
2022/06/20 08:25:24;;;;;;;6.10;1.85;;;;;;;16.77;86.16;101450.88;4884140;29;20045;-77
2022/06/20 08:28:03;;;;;;;11.07;2.42;;;;;;;16.70;85.54;101446.53;4887101;29;20059;-78
2022/06/20 08:30:59;;;;;;;9.40;2.30;;;;;;;16.66;86.99;101452.78;4892515;28;20525;-78
2022/06/20 08:33:34;;;;;;;4.97;2.13;;;;;;;16.61;87.45;101459.06;4907612;29;20041;-78
2022/06/20 08:36:14;;;;;;;6.28;2.15;;;;;;;16.58;88.14;101452.03;4902490;29;20438;-78
2022/06/20 08:38:45;;;;;;;6.70;2.17;;;;;;;16.52;88.45;101460.06;4909391;29;20067;-78
2022/06/20 08:41:26;;;;;;;5.88;2.00;;;;;;;16.46;88.06;101468.09;4910737;29;20067;-78
2022/06/20 08:44:13;;;;;;;;;;;;;;;16.38;87.28;101473.50;4909536;29;20052;-78
2022/06/20 08:47:26;;;;;;;7.15;1.70;;;;;;;16.17;88.04;101475.50;4878635;29;19935;-77
2022/06/20 08:50:27;;;;;;;6.93;1.98;;;;;;;16.27;89.64;101470.09;4910885;29;20384;-78
2022/06/20 08:53:17;;;;;;;4.95;2.25;;;;;;;16.47;89.65;101477.88;4894023;29;20136;-78
2022/06/20 08:55:49;;;;;;;6.43;2.15;;;;;;;16.43;88.86;101478.81;4912102;29;20461;-78
2022/06/20 08:58:20;;;;;;;5.47;1.95;;;;;;;16.36;88.51;101488.63;4920674;29;20052;-78
2022/06/20 09:01:07;;;;;;;4.75;1.67;;;;;;;16.18;87.76;101487.91;4867934;29;20079;-77
2022/06/20 09:03:54;;;;;;;9.68;2.10;;;;;;;16.10;89.19;101483.56;4916902;29;20051;-78
2022/06/20 09:06:29;;;;;;;4.72;1.88;;;;;;;16.22;88.70;101486.09;4899846;29;20055;-77
2022/06/20 09:09:16;;;;;;;5.80;2.33;;;;;;;16.28;87.67;101488.69;4905614;29;20057;-78
2022/06/20 09:12:03;;;;;;;2.28;1.58;;;;;;;16.25;84.29;101490.50;4898533;29;20267;-78
2022/06/20 09:14:58;;;;;;;4.00;1.83;;;;;;;16.33;85.70;101494.84;4925394;29;20040;-78
2022/06/20 09:17:57;;;;;;;4.97;1.60;;;;;;;16.55;84.67;101498.16;4873183;29;20044;-78
2022/06/20 09:20:44;;;;;;;6.07;2.20;;;;;;;16.76;84.46;101491.69;4911351;29;20059;-78
2022/06/20 09:23:46;;;;;;;5.43;2.03;;;;;;;17.07;84.02;101490.44;4909385;29;20052;-77
2022/06/20 09:26:30;;;;;;;3.53;1.48;;;;;;;17.34;83.24;101483.88;4898318;29;20091;-78
2022/06/20 09:29:36;;;;;;;4.70;1.73;;;;;;;17.35;79.22;101493.59;4921815;29;20058;-78
2022/06/20 09:32:23;;;;;;;4.57;2.00;;;;;;;17.26;82.47;101499.09;4915042;29;20055;-78
2022/06/20 09:35:13;;;;;;;5.97;2.10;;;;;;;17.19;83.56;101487.63;4885010;28;20075;-78
2022/06/20 09:38:06;;;;;;;7.90;2.30;;;;;;;17.11;84.88;101500.19;4919343;29;20052;-78
2022/06/20 09:40:53;;;;;;;7.05;1.95;;;;;;;17.05;84.75;101506.47;4901984;29;20052;-78
2022/06/20 09:43:29;;;;;;;6.50;1.83;;;;;;;17.05;85.54;101498.47;4911565;29;20153;-77
2022/06/20 09:46:26;;;;;;;8.85;2.40;;;;;;;17.13;85.10;101491.25;4910243;29;20272;-78
2022/06/20 09:49:13;;;;;;;5.47;1.60;;;;;;;17.28;83.30;101489.28;4879562;29;20340;-78
2022/06/20 09:51:45;;;;;;;5.45;2.05;;;;;;;17.37;82.54;101504.25;4912699;29;20052;-78
2022/06/20 09:54:26;;;;;;;3.92;1.52;;;;;;;17.28;79.72;101497.28;4890411;29;20048;-78
2022/06/20 09:57:09;;;;;;;6.43;1.45;;;;;;;17.20;80.93;101494.72;4909659;29;20457;-77
2022/06/20 10:00:04;;;;;;;3.70;1.40;;;;;;;17.23;79.01;101489.34;4895681;29;20491;-78
2022/06/20 10:03:03;;;;;;;6.50;1.60;;;;;;;17.22;79.88;101500.91;4911116;29;20051;-78
2022/06/20 10:05:44;;;;;;;6.13;1.80;;;;;;;17.09;81.33;101500.19;4878885;29;20478;-78
2022/06/20 10:08:29;;;;;;;4.63;1.45;;;;;;;16.93;82.87;101509.28;4910297;29;20523;-77
2022/06/20 10:11:23;;;;;;;8.02;2.05;;;;;;;16.81;83.91;101496.97;4904889;29;20322;-77
2022/06/20 10:14:07;;;;;;;5.60;1.90;;;;;;;16.91;85.08;101497.75;4909602;29;20262;-78
2022/06/20 10:16:44;;;;;;;4.55;1.80;;;;;;;17.05;83.53;101509.13;4910399;29;20062;-78
2022/06/20 10:19:35;;;;;;;5.45;1.38;;;;;;;17.15;82.87;101500.09;4912276;29;20051;-77
2022/06/20 10:22:15;;;;;;;5.10;1.83;;;;;;;17.34;78.10;101499.84;4883618;29;20529;-78
2022/06/20 10:25:16;;;;;;;2.60;1.58;;;;;;;17.44;76.97;101511.25;4918446;29;20032;-78
2022/06/20 10:28:14;;;;;;;6.55;1.88;;;;;;;17.57;78.32;101503.97;4912546;29;20266;-78
2022/06/20 10:31:12;;;;;;;2.97;1.65;;;;;;;17.70;80.20;101508.19;4893453;29;20048;-78
2022/06/20 10:33:50;;;;;;;7.07;1.83;;;;;;;17.76;80.49;101513.41;4907325;29;20040;-78
2022/06/20 10:36:27;;;;;;;4.53;1.52;;;;;;;17.73;78.49;101510.78;4885802;29;20545;-78
2022/06/20 10:39:11;;;;;;;2.90;1.25;;;;;;;17.78;78.82;101508.94;4910204;29;20040;-78
2022/06/20 10:42:04;;;;;;;5.28;1.65;;;;;;;17.86;78.23;101516.84;4904446;29;20055;-78
2022/06/20 10:44:48;;;;;;;9.75;2.05;;;;;;;17.87;78.72;101518.63;4893835;29;20044;-78
2022/06/20 10:47:30;;;;;;;6.30;1.80;;;;;;;17.84;77.10;101518.63;4911377;29;20055;-77
2022/06/20 10:50:05;;;;;;;7.30;1.67;;;;;;;17.89;77.49;101517.66;4893489;29;20261;-78
2022/06/20 10:52:51;;;;;;;8.02;1.50;;;;;;;17.80;77.77;101520.44;4877507;29;20512;-78
2022/06/20 10:55:42;;;;;;;4.85;1.75;;;;;;;17.65;77.05;101532.22;4895719;29;20048;-78
2022/06/20 10:58:41;;;;;;;11.02;1.92;;;;;;;17.59;77.72;101531.47;4903315;29;20059;-78
2022/06/20 11:01:17;;;;;;;2.58;1.48;;;;;;;17.74;77.72;101533.88;4895938;29;20059;-78
2022/06/20 11:03:46;;;;;;;6.00;1.77;;;;;;;17.97;78.76;101530.00;4907971;29;20067;-78
2022/06/20 11:06:22;;;;;;;5.13;1.95;;;;;;;18.14;78.54;101529.72;4922699;29;20051;-77
2022/06/20 11:09:41;;;;;;;5.90;2.08;;;;;;;18.34;75.98;101532.03;4877336;29;20051;-78
2022/06/20 11:12:29;;;;;;;7.88;1.67;;;;;;;18.41;75.79;101529.22;4852734;29;20052;-78
2022/06/20 11:15:23;;;;;;;8.23;2.22;;;;;;;18.45;73.79;101538.03;4892564;29;20032;-78
2022/06/20 11:18:17;;;;;;;3.45;1.50;;;;;;;18.27;74.70;101547.25;4891519;29;20048;-78
2022/06/20 11:20:56;;;;;;;4.03;1.55;;;;;;;17.96;75.51;101549.56;4908121;29;20661;-78
2022/06/20 11:23:46;;;;;;;5.50;2.15;;;;;;;17.96;75.66;101550.47;4862494;29;20048;-78
2022/06/20 11:26:59;;;;;;;7.47;1.85;;;;;;;18.00;72.19;101553.97;4910346;29;20040;-77
2022/06/20 11:29:40;;;;;;;6.22;1.63;;;;;;;18.12;74.35;101553.75;4907343;29;20418;-78
2022/06/20 11:32:29;;;;;;;6.28;1.80;;;;;;;18.01;76.16;101553.03;4914308;29;20044;-77
2022/06/20 11:35:16;;;;;;;3.35;1.80;;;;;;;18.05;76.88;101560.06;4902906;29;20051;-77
2022/06/20 11:38:23;;;;;;;6.78;2.28;;;;;;;17.89;75.43;101564.78;4877138;29;20086;-78
2022/06/20 11:40:56;;;;;;;3.40;1.40;;;;;;;17.75;74.11;101575.66;4882305;29;20304;-77
2022/06/20 11:43:46;;;;;;;6.80;1.33;;;;;;;17.78;71.23;101566.72;4906533;29;20072;-78
2022/06/20 11:46:36;;;;;;;4.63;1.38;;;;;;;17.91;71.20;101570.97;4910759;29;20504;-77
2022/06/20 11:49:27;;;;;;;5.28;1.75;;;;;;;17.91;74.08;101573.66;4876750;29;20209;-79
2022/06/20 11:52:27;;;;;;;3.50;1.75;;;;;;;18.08;74.08;101568.03;4905791;29;20051;-79
2022/06/20 11:55:08;;;;;;;4.28;1.80;;;;;;;18.25;73.84;101563.28;4873810;29;20266;-79
2022/06/20 11:57:54;;;;;;;3.10;1.70;;;;;;;18.22;75.54;101566.03;4905112;29;20398;-78
2022/06/20 12:00:49;;;;;;;6.70;1.90;;;;;;;18.35;73.97;101560.47;4912525;29;20394;-79
2022/06/20 12:03:23;;;;;;;8.05;1.95;;;;;;;18.30;76.36;101568.56;4899353;29;20060;-79
2022/06/20 12:06:18;;;;;;;4.63;1.75;;;;;;;18.16;77.63;101567.91;4921317;29;20280;-78
2022/06/20 12:08:59;;;;;;;3.30;1.63;;;;;;;18.08;78.17;101584.03;4878904;29;20278;-78
2022/06/20 12:11:30;;;;;;;;;;;;;;;18.25;79.42;101576.63;4876745;29;20063;-79
2022/06/20 12:14:09;;;;;;;4.85;1.80;;;;;;;18.52;77.92;101577.03;4902992;29;20565;-78
2022/06/20 12:17:00;;;;;;;5.05;1.45;;;;;;;18.80;72.56;101573.88;4906448;29;20044;-79
2022/06/20 12:25:43;;;;;;;3.45;1.50;;;;;;;19.19;69.29;101571.34;4920887;29;20036;-79
2022/06/20 12:28:18;;;;;;;1.48;1.02;;;;;;;19.20;71.85;101576.63;4908789;29;20044;-78
2022/06/20 12:30:58;;;;;;;4.75;1.65;;;;;;;19.36;71.98;101576.31;4902135;29;20151;-78
2022/06/20 12:33:29;;;;;;;3.58;1.30;;;;;;;19.24;72.51;101580.13;4893310;29;20055;-80
2022/06/20 12:36:05;;;;;;;4.85;1.88;;;;;;;19.08;72.62;101575.09;4906819;29;20036;-79